Aviation Digital Data Service (ADDS)

Output produced by TAFs form (2115 UTC 20 November 2017)
found at http://www.aviationweather.gov/adds/tafs/
 
METAR text: RJOF 202004Z 02005KT 9999 FEW030 BKN060 03/00 Q1026 RMK 1CU030 5SC060 A3032
Conditions at: RJOF (HOFU (JASDF) , JP) observed 2004 UTC 20 November 2017
Temperature: 3.0°C (37°F)
Dewpoint: 0.0°C (32°F) [RH = 81%]
Pressure (altimeter): 30.30 inches Hg (1026.0 mb)
Winds: from the NNE (20 degrees) at 6 MPH (5 knots; 2.6 m/s)
Visibility: 6 or more miles (10+ km)
Ceiling: 6000 feet AGL
Clouds: few clouds at 3000 feet AGL
broken clouds at 6000 feet AGL
Weather: no significant weather observed at this time